Terminal Aerodrome Forecast
Issued by NWS

Home | Current Version | Previous Version | Text Only | Print | Product List | Glossary On
Versions: 1 2 3 4 5 6 7 8 9 10 11 12 13 14 15 16 17 18 19 20 21 22 23 24 25 26 27 28 29 30 31 32 33 34
000
FTUS43 KDMX 300520
TAFMCW
TAF
KMCW 300520Z 3006/3106 34018G25KT P6SM BKN007 OVC012
     FM300900 36016G25KT P6SM OVC013
     FM301700 02015G20KT P6SM SCT015 BKN028
     FM302100 03012G18KT P6SM BKN035 BKN150
     FM310000 03008KT P6SM SCT040 SCT200=

USA.gov is the U.S. government's official web portal to all federal, state and local government web resources and services.